首页
METAR-TAF:

METAR-TAF

机场 :

玛丽埃塔, 喬治亞, 美国

纬度: 33-55N, 经度: 084-31W, 海拔: 326米

当前天气观测

该预报发布于14分钟前的10:56 UTC
风速7节,风向西
温度 6°C
湿度 87%
气压 1017 hPa
能見度: 16.1公里
天空无云

METAR: KMGE 211056Z AUTO 28007KT 10SM CLR 06/04 A3004 RMK AO2 SLP177 T00560036 $

时间: 07:10 (11:10 UTC)

预报

该预报发布于6小时和10分钟前的05:00 UTC
预报有效从21日的 05点(UTC)到 22日的 11点(UTC)
风速9节,风向西
能见度10公里或以上
天空无云
成为
从 21日的 14点(UTC)到 21日的 15点(UTC)
风速10节,风向西转西北,有时为20节阵风
能见度10公里或以上
天空无云
成为
从 21日的 23点(UTC)到 21日的 24点(UTC)
风速6节,风向西转西北
能见度10公里或以上
天空无云

TAF: KMGE 210500Z 2105/2211 28009KT 9999 SKC QNH2995INS BECMG 2114/2115 30010G20KT 9999 SKC QNH3010INS BECMG 2123/2124 30006KT 9999 SKC QNH3011INS TX22/2121Z TN04/2112Z

超过4000个机场的气象观测和天气预报(METAR&TAF报告)。

可查询的气象台以黄色和红色小点在地图上表示。

将鼠标移到小点上方,可查看气象台名称。

然后点击查看天气观测和预报。

如需切换地图:点击带黑十字的绿色按钮放大地图;点击带横线的绿色按钮缩小地图;或者点击绿色箭头查看邻近地区的地图。


METAR-TAF: